sensor_id;sensor_type;location;lat;lon;timestamp;P1;durP1;ratioP1;P2;durP2;ratioP2
59974;SDS011;62136;-35.664;-63.766;2023-03-17T00:01:52;5.45;;;3.22;;
59974;SDS011;62136;-35.664;-63.766;2023-03-17T00:04:21;4.40;;;3.05;;
59974;SDS011;62136;-35.664;-63.766;2023-03-17T00:06:49;3.97;;;2.42;;
59974;SDS011;62136;-35.664;-63.766;2023-03-17T00:09:17;4.10;;;2.65;;
59974;SDS011;62136;-35.664;-63.766;2023-03-17T00:11:46;3.97;;;2.85;;
59974;SDS011;62136;-35.664;-63.766;2023-03-17T00:14:14;5.53;;;3.30;;
59974;SDS011;62136;-35.664;-63.766;2023-03-17T00:16:42;3.90;;;2.53;;
59974;SDS011;62136;-35.664;-63.766;2023-03-17T00:19:13;4.75;;;3.05;;
59974;SDS011;62136;-35.664;-63.766;2023-03-17T00:21:42;4.45;;;2.47;;
59974;SDS011;62136;-35.664;-63.766;2023-03-17T00:24:11;4.93;;;2.55;;
59974;SDS011;62136;-35.664;-63.766;2023-03-17T00:26:38;4.40;;;2.80;;
59974;SDS011;62136;-35.664;-63.766;2023-03-17T00:29:05;4.20;;;2.60;;
59974;SDS011;62136;-35.664;-63.766;2023-03-17T00:31:33;4.55;;;3.00;;
59974;SDS011;62136;-35.664;-63.766;2023-03-17T00:34:01;3.88;;;2.60;;
59974;SDS011;62136;-35.664;-63.766;2023-03-17T00:36:29;3.83;;;2.80;;
59974;SDS011;62136;-35.664;-63.766;2023-03-17T00:38:58;5.03;;;3.00;;
59974;SDS011;62136;-35.664;-63.766;2023-03-17T00:41:25;3.75;;;2.60;;
59974;SDS011;62136;-35.664;-63.766;2023-03-17T00:43:53;3.22;;;2.72;;
59974;SDS011;62136;-35.664;-63.766;2023-03-17T00:46:25;4.57;;;2.65;;
59974;SDS011;62136;-35.664;-63.766;2023-03-17T00:49:16;2.92;;;2.42;;
59974;SDS011;62136;-35.664;-63.766;2023-03-17T00:51:48;4.43;;;2.58;;
59974;SDS011;62136;-35.664;-63.766;2023-03-17T00:54:16;3.10;;;2.53;;
59974;SDS011;62136;-35.664;-63.766;2023-03-17T00:56:47;5.10;;;3.08;;
59974;SDS011;62136;-35.664;-63.766;2023-03-17T00:59:22;4.43;;;2.70;;
59974;SDS011;62136;-35.664;-63.766;2023-03-17T01:04:17;2.83;;;2.50;;
59974;SDS011;62136;-35.664;-63.766;2023-03-17T01:06:44;3.67;;;3.05;;
59974;SDS011;62136;-35.664;-63.766;2023-03-17T01:09:16;3.78;;;2.63;;
59974;SDS011;62136;-35.664;-63.766;2023-03-17T01:11:45;3.60;;;2.90;;
59974;SDS011;62136;-35.664;-63.766;2023-03-17T01:14:13;3.67;;;2.80;;
59974;SDS011;62136;-35.664;-63.766;2023-03-17T01:16:41;3.40;;;2.60;;
59974;SDS011;62136;-35.664;-63.766;2023-03-17T01:19:10;3.90;;;2.58;;
59974;SDS011;62136;-35.664;-63.766;2023-03-17T01:21:38;4.05;;;3.00;;
59974;SDS011;62136;-35.664;-63.766;2023-03-17T01:24:06;3.95;;;2.70;;
59974;SDS011;62136;-35.664;-63.766;2023-03-17T01:26:34;3.03;;;2.80;;
59974;SDS011;62136;-35.664;-63.766;2023-03-17T01:29:01;4.28;;;3.00;;
59974;SDS011;62136;-35.664;-63.766;2023-03-17T01:31:29;3.60;;;3.20;;
59974;SDS011;62136;-35.664;-63.766;2023-03-17T01:33:56;2.97;;;2.60;;
59974;SDS011;62136;-35.664;-63.766;2023-03-17T01:36:23;3.00;;;2.50;;
59974;SDS011;62136;-35.664;-63.766;2023-03-17T01:38:50;3.38;;;3.00;;
59974;SDS011;62136;-35.664;-63.766;2023-03-17T01:41:18;4.95;;;2.83;;
59974;SDS011;62136;-35.664;-63.766;2023-03-17T01:43:45;3.67;;;2.88;;
59974;SDS011;62136;-35.664;-63.766;2023-03-17T01:46:15;3.28;;;2.97;;
59974;SDS011;62136;-35.664;-63.766;2023-03-17T01:48:56;2.85;;;2.50;;
59974;SDS011;62136;-35.664;-63.766;2023-03-17T01:54:25;3.70;;;2.80;;
59974;SDS011;62136;-35.664;-63.766;2023-03-17T01:59:23;3.75;;;2.80;;
59974;SDS011;62136;-35.664;-63.766;2023-03-17T02:01:55;5.03;;;2.80;;
59974;SDS011;62136;-35.664;-63.766;2023-03-17T02:04:26;4.07;;;2.70;;
59974;SDS011;62136;-35.664;-63.766;2023-03-17T02:06:54;3.75;;;2.78;;
59974;SDS011;62136;-35.664;-63.766;2023-03-17T02:09:22;3.45;;;3.03;;
59974;SDS011;62136;-35.664;-63.766;2023-03-17T02:11:49;2.90;;;2.50;;
59974;SDS011;62136;-35.664;-63.766;2023-03-17T02:14:16;4.22;;;2.55;;
59974;SDS011;62136;-35.664;-63.766;2023-03-17T02:16:44;3.97;;;3.00;;
59974;SDS011;62136;-35.664;-63.766;2023-03-17T02:19:12;3.08;;;2.65;;
59974;SDS011;62136;-35.664;-63.766;2023-03-17T02:21:43;3.65;;;3.00;;
59974;SDS011;62136;-35.664;-63.766;2023-03-17T02:24:18;3.25;;;2.83;;
59974;SDS011;62136;-35.664;-63.766;2023-03-17T02:26:49;3.22;;;2.65;;
59974;SDS011;62136;-35.664;-63.766;2023-03-17T02:29:20;3.42;;;2.80;;
59974;SDS011;62136;-35.664;-63.766;2023-03-17T02:31:47;5.45;;;2.92;;
59974;SDS011;62136;-35.664;-63.766;2023-03-17T02:34:15;3.03;;;2.60;;
59974;SDS011;62136;-35.664;-63.766;2023-03-17T02:36:42;3.90;;;2.83;;
59974;SDS011;62136;-35.664;-63.766;2023-03-17T02:39:10;5.65;;;2.80;;
59974;SDS011;62136;-35.664;-63.766;2023-03-17T02:41:38;3.47;;;2.83;;
59974;SDS011;62136;-35.664;-63.766;2023-03-17T02:44:06;3.58;;;3.00;;
59974;SDS011;62136;-35.664;-63.766;2023-03-17T02:46:33;3.60;;;2.97;;
59974;SDS011;62136;-35.664;-63.766;2023-03-17T02:49:00;3.88;;;2.47;;
59974;SDS011;62136;-35.664;-63.766;2023-03-17T02:51:28;3.60;;;2.80;;
59974;SDS011;62136;-35.664;-63.766;2023-03-17T02:53:55;3.70;;;2.67;;
59974;SDS011;62136;-35.664;-63.766;2023-03-17T02:56:25;2.80;;;2.55;;
59974;SDS011;62136;-35.664;-63.766;2023-03-17T02:58:52;5.35;;;3.05;;
59974;SDS011;62136;-35.664;-63.766;2023-03-17T03:01:20;3.83;;;2.60;;
59974;SDS011;62136;-35.664;-63.766;2023-03-17T03:03:47;3.60;;;2.70;;
59974;SDS011;62136;-35.664;-63.766;2023-03-17T03:06:14;3.03;;;2.72;;
59974;SDS011;62136;-35.664;-63.766;2023-03-17T03:08:41;2.83;;;2.55;;
59974;SDS011;62136;-35.664;-63.766;2023-03-17T03:11:09;3.05;;;2.58;;
59974;SDS011;62136;-35.664;-63.766;2023-03-17T03:13:36;3.50;;;2.78;;
59974;SDS011;62136;-35.664;-63.766;2023-03-17T03:16:03;3.05;;;2.60;;
59974;SDS011;62136;-35.664;-63.766;2023-03-17T03:18:30;3.38;;;2.90;;
59974;SDS011;62136;-35.664;-63.766;2023-03-17T03:20:58;3.42;;;3.13;;
59974;SDS011;62136;-35.664;-63.766;2023-03-17T03:23:25;3.03;;;2.72;;
59974;SDS011;62136;-35.664;-63.766;2023-03-17T03:25:52;3.05;;;2.75;;
59974;SDS011;62136;-35.664;-63.766;2023-03-17T03:28:20;3.00;;;2.60;;
59974;SDS011;62136;-35.664;-63.766;2023-03-17T03:30:50;3.28;;;2.50;;
59974;SDS011;62136;-35.664;-63.766;2023-03-17T03:33:17;4.10;;;2.70;;
59974;SDS011;62136;-35.664;-63.766;2023-03-17T03:35:45;3.40;;;2.60;;
59974;SDS011;62136;-35.664;-63.766;2023-03-17T03:38:12;3.05;;;2.85;;
59974;SDS011;62136;-35.664;-63.766;2023-03-17T03:40:39;3.00;;;2.70;;
59974;SDS011;62136;-35.664;-63.766;2023-03-17T03:43:07;3.90;;;2.70;;
59974;SDS011;62136;-35.664;-63.766;2023-03-17T03:45:34;2.50;;;2.30;;
59974;SDS011;62136;-35.664;-63.766;2023-03-17T03:48:01;3.42;;;2.58;;
59974;SDS011;62136;-35.664;-63.766;2023-03-17T03:50:28;3.67;;;2.42;;
59974;SDS011;62136;-35.664;-63.766;2023-03-17T03:52:56;2.72;;;2.53;;
59974;SDS011;62136;-35.664;-63.766;2023-03-17T03:55:26;4.43;;;2.72;;
59974;SDS011;62136;-35.664;-63.766;2023-03-17T03:57:53;3.03;;;2.50;;
59974;SDS011;62136;-35.664;-63.766;2023-03-17T04:00:23;3.92;;;2.67;;
59974;SDS011;62136;-35.664;-63.766;2023-03-17T04:02:50;2.78;;;2.55;;
59974;SDS011;62136;-35.664;-63.766;2023-03-17T04:05:17;2.92;;;2.45;;
59974;SDS011;62136;-35.664;-63.766;2023-03-17T04:07:44;2.65;;;2.45;;
59974;SDS011;62136;-35.664;-63.766;2023-03-17T04:10:12;3.28;;;2.53;;
59974;SDS011;62136;-35.664;-63.766;2023-03-17T04:12:41;3.03;;;2.33;;
59974;SDS011;62136;-35.664;-63.766;2023-03-17T04:15:09;4.90;;;2.80;;
59974;SDS011;62136;-35.664;-63.766;2023-03-17T04:17:40;2.72;;;2.53;;
59974;SDS011;62136;-35.664;-63.766;2023-03-17T04:20:08;2.78;;;2.58;;
59974;SDS011;62136;-35.664;-63.766;2023-03-17T04:22:37;2.75;;;2.50;;
59974;SDS011;62136;-35.664;-63.766;2023-03-17T04:25:06;3.35;;;2.70;;
59974;SDS011;62136;-35.664;-63.766;2023-03-17T04:27:34;3.05;;;2.83;;
59974;SDS011;62136;-35.664;-63.766;2023-03-17T04:30:02;3.70;;;2.72;;
59974;SDS011;62136;-35.664;-63.766;2023-03-17T04:32:29;3.90;;;2.53;;
59974;SDS011;62136;-35.664;-63.766;2023-03-17T04:34:57;3.63;;;2.88;;
59974;SDS011;62136;-35.664;-63.766;2023-03-17T04:37:24;3.03;;;2.50;;
59974;SDS011;62136;-35.664;-63.766;2023-03-17T04:39:51;2.83;;;2.40;;
59974;SDS011;62136;-35.664;-63.766;2023-03-17T04:42:20;2.83;;;2.60;;
59974;SDS011;62136;-35.664;-63.766;2023-03-17T04:44:47;3.22;;;2.53;;
59974;SDS011;62136;-35.664;-63.766;2023-03-17T04:47:15;2.65;;;2.45;;
59974;SDS011;62136;-35.664;-63.766;2023-03-17T04:49:42;2.80;;;2.60;;
59974;SDS011;62136;-35.664;-63.766;2023-03-17T04:52:09;3.03;;;2.53;;
59974;SDS011;62136;-35.664;-63.766;2023-03-17T04:54:36;2.70;;;2.50;;
59974;SDS011;62136;-35.664;-63.766;2023-03-17T04:57:03;3.05;;;2.75;;
59974;SDS011;62136;-35.664;-63.766;2023-03-17T04:59:30;2.85;;;2.65;;
59974;SDS011;62136;-35.664;-63.766;2023-03-17T05:01:57;2.92;;;2.63;;
59974;SDS011;62136;-35.664;-63.766;2023-03-17T05:04:24;2.95;;;2.17;;
59974;SDS011;62136;-35.664;-63.766;2023-03-17T05:06:51;2.28;;;2.17;;
59974;SDS011;62136;-35.664;-63.766;2023-03-17T05:09:18;3.20;;;2.80;;
59974;SDS011;62136;-35.664;-63.766;2023-03-17T05:11:45;2.72;;;2.53;;
59974;SDS011;62136;-35.664;-63.766;2023-03-17T05:14:12;2.80;;;2.60;;
59974;SDS011;62136;-35.664;-63.766;2023-03-17T05:16:45;2.70;;;2.50;;
59974;SDS011;62136;-35.664;-63.766;2023-03-17T05:19:13;3.10;;;2.40;;
59974;SDS011;62136;-35.664;-63.766;2023-03-17T05:21:41;2.50;;;2.22;;
59974;SDS011;62136;-35.664;-63.766;2023-03-17T05:24:08;2.88;;;2.67;;
59974;SDS011;62136;-35.664;-63.766;2023-03-17T05:26:35;3.17;;;2.88;;
59974;SDS011;62136;-35.664;-63.766;2023-03-17T05:29:02;2.70;;;2.50;;
59974;SDS011;62136;-35.664;-63.766;2023-03-17T05:31:29;2.75;;;2.55;;
59974;SDS011;62136;-35.664;-63.766;2023-03-17T05:33:57;3.30;;;2.50;;
59974;SDS011;62136;-35.664;-63.766;2023-03-17T05:36:28;2.88;;;2.47;;
59974;SDS011;62136;-35.664;-63.766;2023-03-17T05:38:56;3.63;;;2.67;;
59974;SDS011;62136;-35.664;-63.766;2023-03-17T05:41:23;2.95;;;2.75;;
59974;SDS011;62136;-35.664;-63.766;2023-03-17T05:43:54;2.63;;;2.42;;
59974;SDS011;62136;-35.664;-63.766;2023-03-17T05:46:21;3.65;;;2.67;;
59974;SDS011;62136;-35.664;-63.766;2023-03-17T05:48:48;3.80;;;2.45;;
59974;SDS011;62136;-35.664;-63.766;2023-03-17T05:51:15;2.55;;;2.30;;
59974;SDS011;62136;-35.664;-63.766;2023-03-17T05:53:42;2.65;;;2.45;;
59974;SDS011;62136;-35.664;-63.766;2023-03-17T05:56:10;2.55;;;2.35;;
59974;SDS011;62136;-35.664;-63.766;2023-03-17T05:58:37;4.18;;;2.55;;
59974;SDS011;62136;-35.664;-63.766;2023-03-17T06:01:04;2.65;;;2.45;;
59974;SDS011;62136;-35.664;-63.766;2023-03-17T06:03:32;3.95;;;2.47;;
59974;SDS011;62136;-35.664;-63.766;2023-03-17T06:06:03;2.90;;;2.70;;
59974;SDS011;62136;-35.664;-63.766;2023-03-17T06:08:33;2.90;;;2.40;;
59974;SDS011;62136;-35.664;-63.766;2023-03-17T06:11:00;3.45;;;2.50;;
59974;SDS011;62136;-35.664;-63.766;2023-03-17T06:13:30;2.70;;;2.40;;
59974;SDS011;62136;-35.664;-63.766;2023-03-17T06:15:57;2.83;;;2.63;;
59974;SDS011;62136;-35.664;-63.766;2023-03-17T06:18:27;2.50;;;2.22;;
59974;SDS011;62136;-35.664;-63.766;2023-03-17T06:20:54;2.78;;;2.05;;
59974;SDS011;62136;-35.664;-63.766;2023-03-17T06:23:21;2.88;;;2.22;;
59974;SDS011;62136;-35.664;-63.766;2023-03-17T06:25:48;2.58;;;2.38;;
59974;SDS011;62136;-35.664;-63.766;2023-03-17T06:28:15;2.40;;;2.28;;
59974;SDS011;62136;-35.664;-63.766;2023-03-17T06:30:42;3.65;;;3.05;;
59974;SDS011;62136;-35.664;-63.766;2023-03-17T06:33:10;2.75;;;2.55;;
59974;SDS011;62136;-35.664;-63.766;2023-03-17T06:35:37;2.40;;;2.25;;
59974;SDS011;62136;-35.664;-63.766;2023-03-17T06:38:04;2.58;;;2.38;;
59974;SDS011;62136;-35.664;-63.766;2023-03-17T06:40:31;2.40;;;2.20;;
59974;SDS011;62136;-35.664;-63.766;2023-03-17T06:42:59;2.38;;;2.17;;
59974;SDS011;62136;-35.664;-63.766;2023-03-17T06:45:26;2.58;;;2.38;;
59974;SDS011;62136;-35.664;-63.766;2023-03-17T06:47:53;2.70;;;2.50;;
59974;SDS011;62136;-35.664;-63.766;2023-03-17T06:50:21;2.50;;;2.30;;
59974;SDS011;62136;-35.664;-63.766;2023-03-17T06:52:48;3.17;;;2.40;;
59974;SDS011;62136;-35.664;-63.766;2023-03-17T06:55:15;2.78;;;2.55;;
59974;SDS011;62136;-35.664;-63.766;2023-03-17T06:57:43;2.65;;;2.38;;
59974;SDS011;62136;-35.664;-63.766;2023-03-17T07:00:10;2.72;;;2.50;;
59974;SDS011;62136;-35.664;-63.766;2023-03-17T07:02:38;2.80;;;2.60;;
59974;SDS011;62136;-35.664;-63.766;2023-03-17T07:05:06;2.38;;;2.17;;
59974;SDS011;62136;-35.664;-63.766;2023-03-17T07:07:34;2.50;;;2.30;;
59974;SDS011;62136;-35.664;-63.766;2023-03-17T07:10:01;3.63;;;2.53;;
59974;SDS011;62136;-35.664;-63.766;2023-03-17T07:12:30;3.08;;;2.55;;
59974;SDS011;62136;-35.664;-63.766;2023-03-17T07:14:57;2.70;;;2.50;;
59974;SDS011;62136;-35.664;-63.766;2023-03-17T07:17:25;2.33;;;2.13;;
59974;SDS011;62136;-35.664;-63.766;2023-03-17T07:19:53;2.67;;;2.47;;
59974;SDS011;62136;-35.664;-63.766;2023-03-17T07:22:20;2.65;;;2.35;;
59974;SDS011;62136;-35.664;-63.766;2023-03-17T07:24:47;2.83;;;2.63;;
59974;SDS011;62136;-35.664;-63.766;2023-03-17T07:27:15;2.70;;;2.50;;
59974;SDS011;62136;-35.664;-63.766;2023-03-17T07:29:42;3.10;;;2.60;;
59974;SDS011;62136;-35.664;-63.766;2023-03-17T07:32:09;3.20;;;2.35;;
59974;SDS011;62136;-35.664;-63.766;2023-03-17T07:34:36;2.70;;;2.50;;
59974;SDS011;62136;-35.664;-63.766;2023-03-17T07:37:03;2.53;;;2.33;;
59974;SDS011;62136;-35.664;-63.766;2023-03-17T07:39:31;2.33;;;2.17;;
59974;SDS011;62136;-35.664;-63.766;2023-03-17T07:41:58;2.78;;;2.13;;
59974;SDS011;62136;-35.664;-63.766;2023-03-17T07:44:25;3.00;;;2.75;;
59974;SDS011;62136;-35.664;-63.766;2023-03-17T07:46:53;2.65;;;2.45;;
59974;SDS011;62136;-35.664;-63.766;2023-03-17T07:49:20;2.70;;;2.50;;
59974;SDS011;62136;-35.664;-63.766;2023-03-17T07:51:48;2.50;;;2.30;;
59974;SDS011;62136;-35.664;-63.766;2023-03-17T07:54:15;2.80;;;2.60;;
59974;SDS011;62136;-35.664;-63.766;2023-03-17T07:56:42;2.55;;;2.35;;
59974;SDS011;62136;-35.664;-63.766;2023-03-17T08:01:34;2.75;;;2.55;;
59974;SDS011;62136;-35.664;-63.766;2023-03-17T08:04:02;2.58;;;2.38;;
59974;SDS011;62136;-35.664;-63.766;2023-03-17T08:06:30;2.88;;;2.58;;
59974;SDS011;62136;-35.664;-63.766;2023-03-17T08:08:57;2.63;;;2.25;;
59974;SDS011;62136;-35.664;-63.766;2023-03-17T08:11:24;2.35;;;2.15;;
59974;SDS011;62136;-35.664;-63.766;2023-03-17T08:13:51;2.60;;;2.40;;
59974;SDS011;62136;-35.664;-63.766;2023-03-17T08:16:18;2.60;;;2.38;;
59974;SDS011;62136;-35.664;-63.766;2023-03-17T08:18:45;2.50;;;2.30;;
59974;SDS011;62136;-35.664;-63.766;2023-03-17T08:21:12;2.50;;;2.30;;
59974;SDS011;62136;-35.664;-63.766;2023-03-17T08:23:39;2.47;;;2.15;;
59974;SDS011;62136;-35.664;-63.766;2023-03-17T08:26:07;3.13;;;2.50;;
59974;SDS011;62136;-35.664;-63.766;2023-03-17T08:28:34;3.00;;;2.30;;
59974;SDS011;62136;-35.664;-63.766;2023-03-17T08:31:06;2.50;;;2.28;;
59974;SDS011;62136;-35.664;-63.766;2023-03-17T08:33:38;2.50;;;2.30;;
59974;SDS011;62136;-35.664;-63.766;2023-03-17T08:36:07;2.50;;;2.30;;
59974;SDS011;62136;-35.664;-63.766;2023-03-17T08:38:36;2.40;;;2.20;;
59974;SDS011;62136;-35.664;-63.766;2023-03-17T08:41:06;2.33;;;2.22;;
59974;SDS011;62136;-35.664;-63.766;2023-03-17T08:43:36;2.50;;;2.30;;
59974;SDS011;62136;-35.664;-63.766;2023-03-17T08:46:06;2.70;;;2.38;;
59974;SDS011;62136;-35.664;-63.766;2023-03-17T08:48:44;2.67;;;2.47;;
59974;SDS011;62136;-35.664;-63.766;2023-03-17T08:51:12;2.60;;;2.40;;
59974;SDS011;62136;-35.664;-63.766;2023-03-17T08:53:40;2.50;;;2.30;;
59974;SDS011;62136;-35.664;-63.766;2023-03-17T08:56:08;2.55;;;2.35;;
59974;SDS011;62136;-35.664;-63.766;2023-03-17T08:58:35;3.13;;;2.40;;
59974;SDS011;62136;-35.664;-63.766;2023-03-17T09:01:04;2.25;;;2.15;;
59974;SDS011;62136;-35.664;-63.766;2023-03-17T09:03:32;2.78;;;2.58;;
59974;SDS011;62136;-35.664;-63.766;2023-03-17T09:06:00;2.42;;;2.22;;
59974;SDS011;62136;-35.664;-63.766;2023-03-17T09:08:34;2.72;;;2.53;;
59974;SDS011;62136;-35.664;-63.766;2023-03-17T09:11:05;2.60;;;2.40;;
59974;SDS011;62136;-35.664;-63.766;2023-03-17T09:13:34;3.30;;;2.50;;
59974;SDS011;62136;-35.664;-63.766;2023-03-17T09:16:03;2.70;;;2.50;;
59974;SDS011;62136;-35.664;-63.766;2023-03-17T09:18:33;2.40;;;2.20;;
59974;SDS011;62136;-35.664;-63.766;2023-03-17T09:21:00;2.70;;;2.50;;
59974;SDS011;62136;-35.664;-63.766;2023-03-17T09:23:28;3.10;;;2.53;;
59974;SDS011;62136;-35.664;-63.766;2023-03-17T09:25:55;2.80;;;2.60;;
59974;SDS011;62136;-35.664;-63.766;2023-03-17T09:28:22;2.67;;;2.47;;
59974;SDS011;62136;-35.664;-63.766;2023-03-17T09:30:49;2.35;;;2.20;;
59974;SDS011;62136;-35.664;-63.766;2023-03-17T09:33:17;2.50;;;2.30;;
59974;SDS011;62136;-35.664;-63.766;2023-03-17T09:35:44;2.95;;;2.22;;
59974;SDS011;62136;-35.664;-63.766;2023-03-17T09:38:11;3.60;;;2.40;;
59974;SDS011;62136;-35.664;-63.766;2023-03-17T09:40:43;2.33;;;2.13;;
59974;SDS011;62136;-35.664;-63.766;2023-03-17T09:46:09;2.70;;;2.50;;
59974;SDS011;62136;-35.664;-63.766;2023-03-17T09:49:00;2.78;;;2.58;;
59974;SDS011;62136;-35.664;-63.766;2023-03-17T09:51:39;3.33;;;2.70;;
59974;SDS011;62136;-35.664;-63.766;2023-03-17T09:54:13;3.03;;;2.33;;
59974;SDS011;62136;-35.664;-63.766;2023-03-17T09:56:47;2.63;;;2.40;;
59974;SDS011;62136;-35.664;-63.766;2023-03-17T10:01:53;2.80;;;2.60;;
59974;SDS011;62136;-35.664;-63.766;2023-03-17T10:04:20;2.60;;;2.40;;
59974;SDS011;62136;-35.664;-63.766;2023-03-17T10:06:48;2.60;;;2.40;;
59974;SDS011;62136;-35.664;-63.766;2023-03-17T10:11:49;2.72;;;2.53;;
59974;SDS011;62136;-35.664;-63.766;2023-03-17T10:14:35;2.80;;;2.60;;
59974;SDS011;62136;-35.664;-63.766;2023-03-17T10:17:09;2.70;;;2.50;;
59974;SDS011;62136;-35.664;-63.766;2023-03-17T10:22:41;3.47;;;3.03;;
59974;SDS011;62136;-35.664;-63.766;2023-03-17T10:25:18;3.55;;;2.97;;
59974;SDS011;62136;-35.664;-63.766;2023-03-17T10:27:52;3.88;;;3.05;;
59974;SDS011;62136;-35.664;-63.766;2023-03-17T10:30:26;3.88;;;3.58;;
59974;SDS011;62136;-35.664;-63.766;2023-03-17T10:33:01;3.55;;;3.25;;
59974;SDS011;62136;-35.664;-63.766;2023-03-17T10:35:34;4.63;;;3.03;;
59974;SDS011;62136;-35.664;-63.766;2023-03-17T10:38:19;3.30;;;3.03;;
59974;SDS011;62136;-35.664;-63.766;2023-03-17T10:40:55;3.63;;;2.95;;
59974;SDS011;62136;-35.664;-63.766;2023-03-17T10:43:33;5.40;;;3.40;;
59974;SDS011;62136;-35.664;-63.766;2023-03-17T10:46:14;3.80;;;2.80;;
59974;SDS011;62136;-35.664;-63.766;2023-03-17T10:48:48;4.22;;;2.65;;
59974;SDS011;62136;-35.664;-63.766;2023-03-17T10:51:26;5.65;;;3.20;;
59974;SDS011;62136;-35.664;-63.766;2023-03-17T10:54:00;3.63;;;3.08;;
59974;SDS011;62136;-35.664;-63.766;2023-03-17T10:56:35;5.32;;;3.10;;
59974;SDS011;62136;-35.664;-63.766;2023-03-17T10:59:27;4.53;;;2.75;;
59974;SDS011;62136;-35.664;-63.766;2023-03-17T11:02:00;4.53;;;3.03;;
59974;SDS011;62136;-35.664;-63.766;2023-03-17T11:04:39;5.30;;;3.22;;
59974;SDS011;62136;-35.664;-63.766;2023-03-17T11:07:08;4.60;;;3.03;;
59974;SDS011;62136;-35.664;-63.766;2023-03-17T11:09:41;4.65;;;3.30;;
59974;SDS011;62136;-35.664;-63.766;2023-03-17T11:15:19;5.43;;;2.58;;
59974;SDS011;62136;-35.664;-63.766;2023-03-17T11:18:12;5.45;;;2.92;;
59974;SDS011;62136;-35.664;-63.766;2023-03-17T11:20:58;3.42;;;3.10;;
59974;SDS011;62136;-35.664;-63.766;2023-03-17T11:28:43;6.80;;;3.30;;
59974;SDS011;62136;-35.664;-63.766;2023-03-17T11:31:39;5.13;;;2.90;;
59974;SDS011;62136;-35.664;-63.766;2023-03-17T11:34:30;4.30;;;3.20;;
59974;SDS011;62136;-35.664;-63.766;2023-03-17T11:37:10;3.72;;;3.20;;
59974;SDS011;62136;-35.664;-63.766;2023-03-17T11:44:48;5.78;;;3.40;;
59974;SDS011;62136;-35.664;-63.766;2023-03-17T11:55:53;4.97;;;3.60;;
59974;SDS011;62136;-35.664;-63.766;2023-03-17T11:58:40;6.40;;;3.45;;
59974;SDS011;62136;-35.664;-63.766;2023-03-17T12:01:17;7.30;;;3.28;;
59974;SDS011;62136;-35.664;-63.766;2023-03-17T12:07:00;6.38;;;3.30;;
59974;SDS011;62136;-35.664;-63.766;2023-03-17T12:13:08;4.88;;;3.22;;
59974;SDS011;62136;-35.664;-63.766;2023-03-17T12:16:03;6.32;;;3.67;;
59974;SDS011;62136;-35.664;-63.766;2023-03-17T12:18:40;4.82;;;3.40;;
59974;SDS011;62136;-35.664;-63.766;2023-03-17T12:21:30;5.75;;;3.50;;
59974;SDS011;62136;-35.664;-63.766;2023-03-17T12:35:31;5.07;;;3.03;;
59974;SDS011;62136;-35.664;-63.766;2023-03-17T12:43:37;3.45;;;2.90;;
59974;SDS011;62136;-35.664;-63.766;2023-03-17T12:54:49;3.30;;;2.85;;
59974;SDS011;62136;-35.664;-63.766;2023-03-17T12:58:19;4.43;;;2.90;;
59974;SDS011;62136;-35.664;-63.766;2023-03-17T13:00:30;4.65;;;3.03;;
59974;SDS011;62136;-35.664;-63.766;2023-03-17T13:03:06;5.18;;;3.00;;
59974;SDS011;62136;-35.664;-63.766;2023-03-17T13:05:44;3.90;;;2.80;;
59974;SDS011;62136;-35.664;-63.766;2023-03-17T13:08:14;4.53;;;2.95;;
59974;SDS011;62136;-35.664;-63.766;2023-03-17T13:11:12;3.72;;;2.40;;
59974;SDS011;62136;-35.664;-63.766;2023-03-17T13:14:53;4.80;;;2.90;;
59974;SDS011;62136;-35.664;-63.766;2023-03-17T13:22:37;9.75;;;3.88;;
59974;SDS011;62136;-35.664;-63.766;2023-03-17T13:30:39;14.38;;;4.68;;
59974;SDS011;62136;-35.664;-63.766;2023-03-17T13:35:57;10.15;;;4.47;;
59974;SDS011;62136;-35.664;-63.766;2023-03-17T13:41:25;9.65;;;4.20;;
59974;SDS011;62136;-35.664;-63.766;2023-03-17T13:46:42;9.93;;;3.72;;
59974;SDS011;62136;-35.664;-63.766;2023-03-17T13:52:07;10.10;;;3.97;;
59974;SDS011;62136;-35.664;-63.766;2023-03-17T13:54:41;8.23;;;3.78;;
59974;SDS011;62136;-35.664;-63.766;2023-03-17T14:02:41;5.50;;;3.47;;
59974;SDS011;62136;-35.664;-63.766;2023-03-17T14:05:18;8.90;;;3.83;;
59974;SDS011;62136;-35.664;-63.766;2023-03-17T14:07:47;5.85;;;3.35;;
59974;SDS011;62136;-35.664;-63.766;2023-03-17T14:10:25;6.15;;;3.50;;
59974;SDS011;62136;-35.664;-63.766;2023-03-17T14:13:00;5.63;;;3.50;;
59974;SDS011;62136;-35.664;-63.766;2023-03-17T14:18:18;6.03;;;3.28;;
59974;SDS011;62136;-35.664;-63.766;2023-03-17T14:20:54;8.70;;;3.28;;
59974;SDS011;62136;-35.664;-63.766;2023-03-17T14:23:23;5.88;;;3.28;;
59974;SDS011;62136;-35.664;-63.766;2023-03-17T14:25:53;9.60;;;3.42;;
59974;SDS011;62136;-35.664;-63.766;2023-03-17T14:28:31;7.18;;;3.00;;
59974;SDS011;62136;-35.664;-63.766;2023-03-17T14:31:00;6.05;;;3.25;;
59974;SDS011;62136;-35.664;-63.766;2023-03-17T14:33:35;7.18;;;3.25;;
59974;SDS011;62136;-35.664;-63.766;2023-03-17T14:36:06;5.93;;;3.40;;
59974;SDS011;62136;-35.664;-63.766;2023-03-17T14:38:36;6.55;;;3.33;;
59974;SDS011;62136;-35.664;-63.766;2023-03-17T14:43:43;5.82;;;3.65;;
59974;SDS011;62136;-35.664;-63.766;2023-03-17T14:46:15;6.15;;;3.40;;
59974;SDS011;62136;-35.664;-63.766;2023-03-17T14:48:48;5.90;;;3.40;;
59974;SDS011;62136;-35.664;-63.766;2023-03-17T14:53:59;7.43;;;3.33;;
59974;SDS011;62136;-35.664;-63.766;2023-03-17T14:56:35;5.63;;;3.28;;
59974;SDS011;62136;-35.664;-63.766;2023-03-17T14:59:07;6.03;;;3.17;;
59974;SDS011;62136;-35.664;-63.766;2023-03-17T15:01:42;5.53;;;3.45;;
59974;SDS011;62136;-35.664;-63.766;2023-03-17T15:06:52;4.30;;;2.85;;
59974;SDS011;62136;-35.664;-63.766;2023-03-17T15:12:03;4.43;;;2.90;;
59974;SDS011;62136;-35.664;-63.766;2023-03-17T15:14:43;4.88;;;3.28;;
59974;SDS011;62136;-35.664;-63.766;2023-03-17T15:17:15;5.78;;;3.38;;
59974;SDS011;62136;-35.664;-63.766;2023-03-17T15:20:15;5.88;;;3.40;;
59974;SDS011;62136;-35.664;-63.766;2023-03-17T15:22:48;4.22;;;3.00;;
59974;SDS011;62136;-35.664;-63.766;2023-03-17T15:28:21;6.05;;;3.05;;
59974;SDS011;62136;-35.664;-63.766;2023-03-17T15:30:55;4.10;;;3.47;;
59974;SDS011;62136;-35.664;-63.766;2023-03-17T15:33:36;4.55;;;3.20;;
59974;SDS011;62136;-35.664;-63.766;2023-03-17T15:36:04;5.28;;;2.92;;
59974;SDS011;62136;-35.664;-63.766;2023-03-17T15:38:34;4.57;;;3.42;;
59974;SDS011;62136;-35.664;-63.766;2023-03-17T15:41:03;3.35;;;3.05;;
59974;SDS011;62136;-35.664;-63.766;2023-03-17T15:43:30;10.05;;;3.60;;
59974;SDS011;62136;-35.664;-63.766;2023-03-17T15:46:01;4.35;;;2.97;;
59974;SDS011;62136;-35.664;-63.766;2023-03-17T15:48:31;3.95;;;2.85;;
59974;SDS011;62136;-35.664;-63.766;2023-03-17T15:51:04;3.80;;;3.28;;
59974;SDS011;62136;-35.664;-63.766;2023-03-17T15:53:31;3.88;;;2.80;;
59974;SDS011;62136;-35.664;-63.766;2023-03-17T15:55:58;5.15;;;3.03;;
59974;SDS011;62136;-35.664;-63.766;2023-03-17T15:58:26;6.15;;;2.92;;
59974;SDS011;62136;-35.664;-63.766;2023-03-17T16:00:54;5.15;;;3.00;;
59974;SDS011;62136;-35.664;-63.766;2023-03-17T16:03:28;3.30;;;2.80;;
59974;SDS011;62136;-35.664;-63.766;2023-03-17T16:05:58;4.53;;;2.87;;
59974;SDS011;62136;-35.664;-63.766;2023-03-17T16:08:29;3.20;;;2.90;;
59974;SDS011;62136;-35.664;-63.766;2023-03-17T16:11:00;4.70;;;2.50;;
59974;SDS011;62136;-35.664;-63.766;2023-03-17T16:13:31;3.70;;;2.70;;
59974;SDS011;62136;-35.664;-63.766;2023-03-17T16:15:59;3.20;;;2.78;;
59974;SDS011;62136;-35.664;-63.766;2023-03-17T16:18:31;5.78;;;2.90;;
59974;SDS011;62136;-35.664;-63.766;2023-03-17T16:21:02;3.55;;;2.80;;
59974;SDS011;62136;-35.664;-63.766;2023-03-17T16:23:30;4.70;;;2.90;;
59974;SDS011;62136;-35.664;-63.766;2023-03-17T16:26:01;2.90;;;2.65;;
59974;SDS011;62136;-35.664;-63.766;2023-03-17T16:28:29;3.20;;;2.58;;